createdAt,value
2022-08-17T00:00:55.080Z,1
2022-08-17T00:01:55.090Z,1
2022-08-17T00:02:55.058Z,1
2022-08-17T00:03:55.047Z,1
2022-08-17T00:04:55.276Z,1
2022-08-17T00:05:55.023Z,1
2022-08-17T00:06:55.014Z,1
2022-08-17T00:07:55.005Z,1
2022-08-17T00:08:55.000Z,1
2022-08-17T00:09:54.984Z,1
2022-08-17T00:10:54.972Z,1
2022-08-17T00:12:42.807Z,1
2022-08-17T00:12:56.389Z,1
2022-08-17T00:13:56.018Z,1
2022-08-17T00:14:54.929Z,1
2022-08-17T00:15:54.917Z,1
2022-08-17T00:16:57.094Z,1
2022-08-17T00:17:54.897Z,1
2022-08-17T00:19:07.823Z,1
2022-08-17T00:19:55.899Z,1
2022-08-17T00:20:54.865Z,1
2022-08-17T00:22:29.772Z,1
2022-08-17T00:22:55.863Z,1
2022-08-17T00:23:54.833Z,1
2022-08-17T00:24:54.826Z,1
2022-08-17T00:25:54.809Z,1
2022-08-17T00:26:54.801Z,1
2022-08-17T00:27:54.790Z,1
2022-08-17T00:28:54.778Z,1
2022-08-17T00:29:54.769Z,1
2022-08-17T00:30:54.758Z,1
2022-08-17T00:31:54.747Z,1
2022-08-17T00:33:12.680Z,1
2022-08-17T00:33:55.748Z,1
2022-08-17T00:34:54.723Z,1
2022-08-17T00:35:54.725Z,1
2022-08-17T00:36:54.698Z,1
2022-08-17T00:37:54.690Z,1
2022-08-17T00:38:54.676Z,1
2022-08-17T00:39:54.773Z,1
2022-08-17T00:40:55.815Z,1
2022-08-17T00:41:54.658Z,1
2022-08-17T00:42:54.638Z,1
2022-08-17T00:43:54.625Z,1
2022-08-17T00:44:54.610Z,1
2022-08-17T00:45:54.618Z,1
2022-08-17T00:46:54.591Z,1
2022-08-17T00:47:54.582Z,1
2022-08-17T00:48:54.568Z,1
2022-08-17T00:49:54.556Z,1
2022-08-17T00:50:54.549Z,1
2022-08-17T00:51:54.560Z,1
2022-08-17T00:52:54.524Z,1
2022-08-17T00:53:54.517Z,1
2022-08-17T00:54:54.505Z,1
2022-08-17T00:55:54.493Z,1
2022-08-17T00:56:54.492Z,1
2022-08-17T00:57:55.535Z,1
2022-08-17T00:58:54.462Z,1
2022-08-17T01:00:02.195Z,1
2022-08-17T01:00:55.555Z,1
2022-08-17T01:01:54.433Z,1
2022-08-17T01:02:54.596Z,1
2022-08-17T01:03:58.036Z,1
2022-08-17T01:04:54.403Z,1
2022-08-17T01:05:54.390Z,1
2022-08-17T01:06:54.383Z,1
2022-08-17T01:07:54.404Z,1
2022-08-17T01:08:57.596Z,1
2022-08-17T01:09:54.349Z,1
2022-08-17T01:10:58.690Z,1
2022-08-17T01:11:55.404Z,1
2022-08-17T01:12:54.322Z,1
2022-08-17T01:13:54.307Z,1
2022-08-17T01:14:54.299Z,1
2022-08-17T01:15:54.287Z,1
2022-08-17T01:16:54.282Z,1
2022-08-17T01:17:54.269Z,1
2022-08-17T01:18:54.260Z,1
2022-08-17T01:19:54.247Z,1
2022-08-17T01:20:54.237Z,1
2022-08-17T01:21:54.222Z,1
2022-08-17T01:22:54.220Z,1
2022-08-17T01:23:54.202Z,1
2022-08-17T01:24:54.197Z,1
2022-08-17T01:25:54.186Z,1
2022-08-17T01:26:54.171Z,1
2022-08-17T01:27:54.164Z,1
2022-08-17T01:28:55.937Z,1
2022-08-17T01:29:54.143Z,1
2022-08-17T01:30:58.420Z,1
2022-08-17T01:31:54.121Z,1
2022-08-17T01:32:54.108Z,1
2022-08-17T01:33:54.097Z,1
2022-08-17T01:34:54.091Z,1
2022-08-17T01:35:54.086Z,1
2022-08-17T01:36:54.067Z,1
2022-08-17T01:37:54.060Z,1
2022-08-17T01:38:54.053Z,1
2022-08-17T01:39:54.141Z,1
2022-08-17T01:40:57.572Z,1
2022-08-17T01:41:54.017Z,1
2022-08-17T01:42:54.004Z,1
2022-08-17T01:43:53.999Z,1
2022-08-17T01:44:53.988Z,1
2022-08-17T01:46:02.467Z,1
2022-08-17T01:46:54.988Z,1
2022-08-17T01:47:53.956Z,1
2022-08-17T01:48:53.946Z,1
2022-08-17T01:49:53.934Z,1
2022-08-17T01:50:53.925Z,1
2022-08-17T01:51:53.913Z,1
2022-08-17T01:52:53.906Z,1
2022-08-17T01:53:53.895Z,1
2022-08-17T01:54:53.880Z,1
2022-08-17T01:55:53.873Z,1
2022-08-17T01:56:53.859Z,1
2022-08-17T01:57:53.850Z,1
2022-08-17T01:58:53.838Z,1
2022-08-17T01:59:53.833Z,1
2022-08-17T02:01:01.082Z,1
2022-08-17T02:01:54.924Z,1
2022-08-17T02:02:53.798Z,1
2022-08-17T02:04:01.249Z,1
2022-08-17T02:04:54.798Z,1
2022-08-17T02:05:53.769Z,1
2022-08-17T02:06:54.667Z,1
2022-08-17T02:08:00.402Z,1
2022-08-17T02:09:02.257Z,1
2022-08-17T02:09:54.742Z,1
2022-08-17T02:10:53.712Z,1
2022-08-17T02:11:54.117Z,1
2022-08-17T02:12:53.929Z,1
2022-08-17T02:13:57.891Z,1
2022-08-17T02:14:54.691Z,1
2022-08-17T02:15:53.659Z,1
2022-08-17T02:16:53.649Z,1
2022-08-17T02:17:54.861Z,1
2022-08-17T02:18:53.629Z,1
2022-08-17T02:19:53.616Z,1
2022-08-17T02:20:53.611Z,1
2022-08-17T02:21:53.598Z,1
2022-08-17T02:22:53.587Z,1
2022-08-17T02:23:53.577Z,1
2022-08-17T02:24:58.461Z,1
2022-08-17T02:25:53.558Z,1
2022-08-17T02:26:53.544Z,1
2022-08-17T02:27:53.536Z,1
2022-08-17T02:28:53.523Z,1
2022-08-17T02:29:53.514Z,1
2022-08-17T02:31:01.640Z,1
2022-08-17T02:31:54.514Z,1
2022-08-17T02:32:53.487Z,1
2022-08-17T02:33:56.673Z,1
2022-08-17T02:34:53.461Z,1
2022-08-17T02:35:53.453Z,1
2022-08-17T02:36:53.446Z,1
2022-08-17T02:37:55.730Z,1
2022-08-17T02:38:53.424Z,1
2022-08-17T02:39:53.456Z,1
2022-08-17T02:40:53.402Z,1
2022-08-17T02:41:53.390Z,1
2022-08-17T02:42:53.379Z,1
2022-08-17T02:43:53.367Z,1
2022-08-17T02:44:53.357Z,1
2022-08-17T02:45:53.347Z,1
2022-08-17T02:46:53.340Z,1
2022-08-17T02:47:53.326Z,1
2022-08-17T03:40:57.603Z,5.
2022-08-17T03:41:53.784Z,5.
2022-08-17T03:42:52.751Z,5.
2022-08-17T03:43:52.740Z,5.
2022-08-17T03:46:52.708Z,6.
2022-08-17T03:53:52.638Z,7.
2022-08-17T03:54:52.626Z,8.
2022-08-17T03:55:52.621Z,9.
2022-08-17T03:56:52.607Z,9.
2022-08-17T03:57:52.596Z,10.
2022-08-17T03:58:52.586Z,11.
2022-08-17T03:59:52.577Z,13.
2022-08-17T04:00:52.568Z,15.
2022-08-17T04:01:52.605Z,14.
2022-08-17T04:02:52.584Z,16.
2022-08-17T04:03:52.532Z,1
2022-08-17T04:04:52.676Z,1
2022-08-17T04:05:52.512Z,2
2022-08-17T04:06:52.502Z,2
2022-08-17T04:07:52.499Z,2
2022-08-17T04:08:52.480Z,3
2022-08-17T04:09:52.469Z,3
2022-08-17T04:10:52.457Z,38.
2022-08-17T04:11:52.447Z,40.
2022-08-17T04:12:52.678Z,42.
2022-08-17T04:13:52.425Z,43.
2022-08-17T04:14:54.600Z,43.
2022-08-17T04:15:52.403Z,43.
2022-08-17T04:16:52.399Z,41.
2022-08-17T04:17:52.386Z,40.
2022-08-17T04:18:52.379Z,38.
2022-08-17T04:19:52.365Z,37.
2022-08-17T04:20:52.352Z,34.
2022-08-17T04:21:52.341Z,33.
2022-08-17T04:22:52.330Z,33.
2022-08-17T04:23:52.325Z,30.
2022-08-17T04:24:52.312Z,31.
2022-08-17T04:25:52.359Z,30.
2022-08-17T04:26:54.595Z,30.
2022-08-17T04:27:52.286Z,30.
2022-08-17T04:28:52.271Z,32.
2022-08-17T04:29:54.593Z,34.
2022-08-17T04:30:52.256Z,34.
2022-08-17T04:31:52.241Z,35.
2022-08-17T04:33:03.551Z,34.
2022-08-17T04:33:53.240Z,32.
2022-08-17T04:34:52.210Z,32.
2022-08-17T04:35:52.199Z,31.
2022-08-17T04:36:52.191Z,31.
2022-08-17T04:37:52.180Z,32.
2022-08-17T04:38:52.171Z,30.
2022-08-17T04:39:52.205Z,31.
2022-08-17T04:40:52.156Z,33.
2022-08-17T04:41:52.140Z,33.
2022-08-17T04:42:52.264Z,33.
2022-08-17T04:43:53.143Z,34.
2022-08-17T04:44:52.109Z,33.
2022-08-17T04:45:56.339Z,31.
2022-08-17T04:46:52.092Z,32.00
2022-08-17T04:47:52.076Z,34.09
2022-08-17T04:48:52.069Z,33.40
2022-08-17T04:49:52.058Z,34.79
2022-08-17T04:50:52.046Z,34.59
2022-08-17T04:51:56.295Z,31.20
2022-08-17T04:52:53.055Z,28.89
2022-08-17T04:53:54.649Z,31.70
2022-08-17T04:54:52.057Z,32.29
2022-08-17T04:55:51.996Z,32.20
2022-08-17T04:56:51.986Z,34.00
2022-08-17T04:57:51.972Z,33.29
2022-08-17T04:58:51.966Z,33.59
2022-08-17T04:59:51.955Z,34.00
2022-08-17T05:00:52.033Z,34.20
2022-08-17T05:01:51.934Z,35.00
2022-08-17T05:02:52.470Z,33.90
2022-08-17T05:03:51.911Z,32.20
2022-08-17T05:04:51.898Z,30.79
2022-08-17T05:05:51.891Z,31.29
2022-08-17T05:06:51.880Z,31.79
2022-08-17T05:07:51.864Z,34.20
2022-08-17T05:08:51.855Z,34.29
2022-08-17T05:09:51.845Z,33.90
2022-08-17T05:10:51.836Z,32.79
2022-08-17T05:11:51.829Z,33.00
2022-08-17T05:12:51.990Z,35.00
2022-08-17T05:13:51.804Z,34.90
2022-08-17T05:14:51.792Z,34.09
2022-08-17T05:15:51.783Z,36.70
2022-08-17T05:16:51.829Z,37.29
2022-08-17T05:17:51.761Z,36.50
2022-08-17T05:18:51.750Z,35.70
2022-08-17T05:19:52.183Z,34.70
2022-08-17T05:20:52.469Z,31.60
2022-08-17T05:21:51.819Z,30.50
2022-08-17T05:22:51.967Z,33.40
2022-08-17T05:23:54.808Z,34.20
2022-08-17T05:24:53.871Z,33.90
2022-08-17T05:25:51.728Z,35.00
2022-08-17T05:26:51.664Z,34.20
2022-08-17T05:27:51.655Z,32.40
2022-08-17T05:28:51.649Z,31.00
2022-08-17T05:29:51.638Z,30.60
2022-08-17T05:30:51.627Z,33.09
2022-08-17T05:31:51.616Z,32.40
2022-08-17T05:32:51.906Z,32.09
2022-08-17T05:33:51.595Z,32.09
2022-08-17T05:34:51.583Z,32.20
2022-08-17T05:35:51.575Z,32.50
2022-08-17T05:36:51.562Z,30.10
2022-08-17T05:37:51.554Z,28.29
2022-08-17T05:38:51.544Z,28.00
2022-08-17T05:39:51.624Z,26.60
2022-08-17T05:40:51.519Z,28.60
2022-08-17T05:41:51.511Z,29.29
2022-08-17T05:42:51.773Z,26.79
2022-08-17T05:43:56.104Z,27.60
2022-08-17T05:44:51.479Z,27.10
2022-08-17T05:45:56.094Z,28.00
2022-08-17T05:46:51.469Z,27.29
2022-08-17T05:47:51.451Z,28.50
2022-08-17T05:48:51.436Z,28.70
2022-08-17T05:49:51.426Z,30.50
2022-08-17T05:50:51.419Z,31.60
2022-08-17T05:51:51.411Z,32.90
2022-08-17T05:52:51.598Z,30.60
2022-08-17T05:53:51.385Z,29.29
2022-08-17T05:54:51.381Z,26.20
2022-08-17T05:55:51.368Z,28.39
2022-08-17T05:56:51.358Z,27.89
2022-08-17T05:57:54.203Z,27.50
2022-08-17T05:58:51.334Z,25.60
2022-08-17T05:59:51.323Z,27.79
2022-08-17T06:00:51.430Z,27.39
2022-08-17T06:01:51.303Z,27.50
2022-08-17T06:02:51.680Z,27.39
2022-08-17T06:03:51.282Z,26.89
2022-08-17T06:04:51.273Z,31.00
2022-08-17T06:05:51.260Z,30.79
2022-08-17T06:06:51.252Z,31.60
2022-08-17T06:07:51.244Z,29.79
2022-08-17T06:08:51.759Z,25.89
2022-08-17T06:09:51.216Z,26.29
2022-08-17T06:10:51.209Z,26.79
2022-08-17T06:11:53.357Z,27.39
2022-08-17T06:12:51.441Z,26.20
2022-08-17T06:13:51.179Z,27.00
2022-08-17T06:14:51.164Z,25.70
2022-08-17T06:15:51.158Z,25.39
2022-08-17T06:16:51.145Z,25.00
2022-08-17T06:17:51.134Z,25.29
2022-08-17T06:18:51.121Z,24.79
2022-08-17T06:19:51.114Z,22.79
2022-08-17T06:20:51.107Z,22.60
2022-08-17T06:21:51.093Z,21.50
2022-08-17T06:22:51.383Z,22.70
2022-08-17T06:23:51.078Z,22.10
2022-08-17T06:24:51.066Z,22.39
2022-08-17T06:25:51.054Z,21.70
2022-08-17T06:26:51.045Z,22.20
2022-08-17T06:27:53.393Z,22.60
2022-08-17T06:28:51.024Z,23.89
2022-08-17T06:29:51.017Z,22.89
2022-08-17T06:31:00.271Z,23.70
2022-08-17T06:31:52.016Z,24.50
2022-08-17T06:32:51.240Z,25.79
2022-08-17T06:33:50.974Z,26.29
2022-08-17T06:34:50.964Z,24.89
2022-08-17T06:35:50.953Z,24.00
2022-08-17T06:36:50.943Z,23.50
2022-08-17T06:37:50.932Z,22.79
2022-08-17T06:38:50.922Z,21.89
2022-08-17T06:39:50.975Z,20.89
2022-08-17T06:40:50.908Z,21.00
2022-08-17T06:41:50.894Z,20.79
2022-08-17T06:43:06.149Z,20.70
2022-08-17T06:43:50.872Z,22.70
2022-08-17T06:44:51.597Z,22.70
2022-08-17T06:45:50.849Z,20.29
2022-08-17T06:46:50.841Z,19.79
2022-08-17T06:47:50.839Z,18.70
2022-08-17T06:48:50.824Z,18.39
2022-08-17T06:49:55.290Z,17.39
2022-08-17T06:50:50.805Z,17.89
2022-08-17T06:51:50.798Z,16.79
2022-08-17T06:52:50.780Z,16.79
2022-08-17T06:53:50.766Z,16.79
2022-08-17T06:54:50.814Z,16.00
2022-08-17T06:55:50.749Z,18.10
2022-08-17T06:56:53.071Z,17.70
2022-08-17T06:57:50.727Z,21.00
2022-08-17T06:58:50.715Z,22.29
2022-08-17T06:59:55.204Z,21.10
2022-08-17T07:00:54.157Z,20.70
2022-08-17T07:01:51.703Z,20.00
2022-08-17T07:03:02.335Z,19.50
2022-08-17T07:03:50.661Z,17.10
2022-08-17T07:04:50.650Z,17.60
2022-08-17T07:05:50.640Z,16.70
2022-08-17T07:06:50.633Z,15.39
2022-08-17T07:07:50.621Z,14.89
2022-08-17T07:08:50.610Z,16.20
2022-08-17T07:09:50.596Z,14.30
2022-08-17T07:10:50.587Z,13.50
2022-08-17T07:11:50.575Z,13.50
2022-08-17T07:12:50.770Z,15.10
2022-08-17T07:13:51.727Z,14.10
2022-08-17T07:14:50.544Z,14.10
2022-08-17T07:15:53.966Z,13.30
2022-08-17T07:16:51.544Z,12.69
2022-08-17T07:17:50.514Z,13.39
2022-08-17T07:18:50.502Z,13.00
2022-08-17T07:19:50.494Z,12.69
2022-08-17T07:20:50.481Z,10.69
2022-08-17T07:21:50.467Z,10.30
2022-08-17T07:22:57.769Z,10.80
2022-08-17T07:23:50.449Z,10.60
2022-08-17T07:24:50.439Z,11.89
2022-08-17T07:25:50.429Z,9.00
2022-08-17T07:26:50.428Z,8.89
2022-08-17T07:27:50.564Z,9.30
2022-08-17T07:28:50.400Z,9.19
2022-08-17T07:29:50.391Z,8.69
2022-08-17T07:30:50.376Z,9.10
2022-08-17T07:31:50.368Z,11.10
2022-08-17T07:32:50.359Z,10.00
2022-08-17T07:33:50.345Z,10.19
2022-08-17T07:34:50.337Z,10.00
2022-08-17T07:35:50.328Z,9.50
2022-08-17T07:36:50.319Z,10.39
2022-08-17T07:37:50.518Z,9.80
2022-08-17T07:38:50.296Z,9.39
2022-08-17T07:40:14.856Z,10.19
2022-08-17T07:40:51.308Z,9.39
2022-08-17T07:41:53.346Z,9.30
2022-08-17T07:42:51.279Z,9.39
2022-08-17T07:43:50.248Z,9.89
2022-08-17T07:44:50.234Z,9.50
2022-08-17T07:45:50.226Z,9.30
2022-08-17T07:46:50.213Z,9.30
2022-08-17T07:47:50.500Z,9.19
2022-08-17T07:48:50.196Z,8.19
2022-08-17T07:49:50.185Z,8.50
2022-08-17T07:50:50.678Z,9.30
2022-08-17T07:51:50.161Z,8.10
2022-08-17T07:52:51.687Z,8.00
2022-08-17T07:53:50.143Z,8.30
2022-08-17T07:54:50.134Z,7.90
2022-08-17T07:55:50.124Z,7.90
2022-08-17T07:56:50.110Z,7.40
2022-08-17T07:57:50.366Z,6.90
2022-08-17T07:58:50.092Z,7.30
2022-08-17T07:59:50.089Z,6.90
2022-08-17T08:00:50.083Z,8.00
2022-08-17T08:01:51.751Z,7.09
2022-08-17T08:02:51.069Z,7.40
2022-08-17T08:03:52.622Z,7.30
2022-08-17T08:05:00.673Z,7.80
2022-08-17T08:05:51.178Z,7.90
2022-08-17T08:06:50.007Z,7.69
2022-08-17T08:07:50.158Z,7.00
2022-08-17T08:08:49.988Z,6.09
2022-08-17T08:09:49.974Z,7.30
2022-08-17T08:10:49.969Z,6.50
2022-08-17T08:11:49.961Z,6.59
2022-08-17T08:12:52.784Z,7.40
2022-08-17T08:13:49.937Z,7.59
2022-08-17T08:14:49.925Z,7.59
2022-08-17T08:15:54.123Z,6.69
2022-08-17T08:16:49.904Z,6.80
2022-08-17T08:17:50.186Z,6.59
2022-08-17T08:18:55.361Z,6.50
2022-08-17T08:19:50.896Z,6.19
2022-08-17T08:20:53.330Z,6.09
2022-08-17T08:21:49.852Z,6.09
2022-08-17T08:22:49.847Z,6.00
2022-08-17T08:23:49.835Z,6.19
2022-08-17T08:24:49.822Z,5.50
2022-08-17T08:25:53.479Z,5.80
2022-08-17T08:26:49.805Z,5.90
2022-08-17T08:27:49.980Z,5.90
2022-08-17T08:28:49.783Z,6.00
2022-08-17T08:29:49.775Z,6.40
2022-08-17T08:30:49.764Z,6.40
2022-08-17T08:31:49.750Z,6.69
2022-08-17T08:32:50.335Z,6.59
2022-08-17T08:33:49.732Z,6.80
2022-08-17T08:35:02.268Z,7.19
2022-08-17T08:35:49.711Z,6.69
2022-08-17T08:36:57.122Z,7.30
2022-08-17T08:37:50.784Z,6.59
2022-08-17T08:38:49.679Z,7.19
2022-08-17T08:39:49.717Z,7.30
2022-08-17T08:40:49.663Z,7.00
2022-08-17T08:41:49.651Z,7.09
2022-08-17T08:42:49.637Z,7.90
2022-08-17T08:43:53.070Z,7.69
2022-08-17T08:44:59.702Z,7.40
2022-08-17T08:45:50.633Z,7.90
2022-08-17T08:46:49.599Z,7.19
2022-08-17T08:47:49.949Z,7.30
2022-08-17T08:48:56.550Z,7.50
2022-08-17T08:50:05.602Z,7.40
2022-08-17T08:50:50.578Z,7.19
2022-08-17T08:51:49.552Z,7.00
2022-08-17T08:52:49.543Z,6.90
2022-08-17T08:53:49.528Z,6.59
2022-08-17T08:54:49.519Z,6.59
2022-08-17T08:55:49.513Z,6.50
2022-08-17T08:57:19.164Z,6.50
2022-08-17T08:57:50.736Z,6.40
2022-08-17T08:58:49.478Z,5.59
2022-08-17T08:59:57.916Z,5.50
2022-08-17T09:00:50.479Z,5.69
2022-08-17T09:01:49.507Z,5.40
2022-08-17T09:02:49.437Z,5.80
2022-08-17T09:03:53.164Z,5.50
2022-08-17T09:05:13.066Z,6.00
2022-08-17T09:05:50.500Z,6.09
2022-08-17T09:06:49.398Z,5.90
2022-08-17T09:07:49.564Z,6.40
2022-08-17T09:08:49.374Z,6.09
2022-08-17T09:09:49.368Z,6.19
2022-08-17T09:10:49.359Z,5.90
2022-08-17T09:12:01.786Z,5.69
2022-08-17T09:12:49.336Z,5.90
2022-08-17T09:13:54.408Z,5.19
2022-08-17T09:14:49.313Z,5.30
2022-08-17T09:15:49.311Z,5.40
2022-08-17T09:16:49.297Z,5.30
2022-08-17T09:17:50.119Z,5.19
2022-08-17T09:19:01.392Z,5.50
2022-08-17T09:19:50.318Z,5.40
2022-08-17T09:20:50.347Z,5.50
2022-08-17T09:21:49.241Z,5.40
2022-08-17T09:22:49.233Z,5.50
2022-08-17T09:23:49.226Z,5.50
2022-08-17T09:24:49.215Z,5.80
2022-08-17T09:25:49.206Z,6.00
2022-08-17T09:26:49.194Z,6.00
2022-08-17T09:27:49.335Z,5.59
2022-08-17T09:28:49.176Z,5.19
2022-08-17T09:29:49.165Z,5.40
2022-08-17T09:30:49.153Z,5.50
2022-08-17T09:31:49.667Z,5.00
2022-08-17T09:32:49.137Z,5.50
2022-08-17T09:33:49.129Z,5.40
2022-08-17T09:34:49.117Z,5.40
2022-08-17T09:35:49.106Z,5.09
2022-08-17T09:36:49.092Z,4.80
2022-08-17T09:37:49.202Z,5.30
2022-08-17T09:38:49.070Z,5.30
2022-08-17T09:39:49.131Z,4.90
2022-08-17T09:40:49.050Z,5.19
2022-08-17T09:41:49.553Z,5.00
2022-08-17T09:42:49.035Z,4.80
2022-08-17T09:43:49.023Z,5.09
2022-08-17T09:44:49.013Z,5.19
2022-08-17T09:45:49.001Z,5.09
2022-08-17T09:46:48.992Z,4.80
2022-08-17T09:47:49.120Z,5.19
2022-08-17T09:48:48.975Z,5.00
2022-08-17T09:49:48.968Z,5.19
2022-08-17T09:51:03.984Z,5.19
2022-08-17T09:51:49.967Z,4.80
2022-08-17T09:52:48.934Z,4.69
2022-08-17T09:53:49.815Z,5.09
2022-08-17T09:54:48.911Z,5.09
2022-08-17T09:55:48.905Z,5.19
2022-08-17T09:57:05.713Z,5.00
2022-08-17T09:57:50.110Z,4.80
2022-08-17T09:58:48.876Z,5.19
2022-08-17T09:59:48.865Z,4.80
2022-08-17T10:00:48.886Z,4.40
2022-08-17T10:01:48.848Z,4.69
2022-08-17T10:02:48.841Z,4.59
2022-08-17T10:03:48.828Z,4.59
2022-08-17T10:04:48.816Z,4.40
2022-08-17T10:05:48.808Z,4.30
2022-08-17T10:06:48.797Z,4.40
2022-08-17T10:07:48.788Z,4.69
2022-08-17T10:08:48.780Z,4.50
2022-08-17T10:09:48.772Z,4.90
2022-08-17T10:10:56.315Z,4.69
2022-08-17T10:11:50.427Z,4.59
2022-08-17T10:12:48.746Z,4.50
2022-08-17T10:13:53.063Z,4.30
2022-08-17T10:14:53.538Z,4.69
2022-08-17T10:15:48.712Z,5.09
2022-08-17T10:16:48.700Z,4.69
2022-08-17T10:17:49.011Z,4.40
2022-08-17T10:18:48.688Z,4.90
2022-08-17T10:19:48.672Z,4.59
2022-08-17T10:20:48.665Z,4.50
2022-08-17T10:21:48.656Z,4.19
2022-08-17T10:22:53.093Z,4.09
2022-08-17T10:23:49.656Z,4.30
2022-08-17T10:25:22.994Z,4.19
2022-08-17T10:25:55.212Z,4.40
2022-08-17T10:26:56.071Z,4.50
2022-08-17T10:27:49.788Z,4.69
2022-08-17T10:28:48.587Z,4.50
2022-08-17T10:29:49.764Z,4.19
2022-08-17T10:30:48.570Z,4.59
2022-08-17T10:31:48.561Z,4.50
2022-08-17T10:32:48.550Z,4.40
2022-08-17T10:33:48.543Z,4.50
2022-08-17T10:34:48.533Z,4.30
2022-08-17T10:35:48.525Z,4.69
2022-08-17T10:36:48.517Z,4.19
2022-08-17T10:37:48.505Z,4.30
2022-08-17T10:38:48.493Z,4.19
2022-08-17T10:39:51.912Z,4.30
2022-08-17T10:40:48.473Z,4.30
2022-08-17T10:41:48.465Z,4.59
2022-08-17T10:42:48.457Z,4.30
2022-08-17T10:43:55.757Z,4.50
2022-08-17T10:44:49.459Z,4.19
2022-08-17T10:45:48.430Z,4.69
2022-08-17T10:46:49.439Z,4.59
2022-08-17T10:47:55.612Z,4.30
2022-08-17T10:48:49.424Z,4.69
2022-08-17T10:49:48.394Z,4.69
2022-08-17T10:50:48.389Z,4.40
2022-08-17T10:51:48.379Z,4.00
2022-08-17T10:52:48.368Z,3.90
2022-08-17T10:53:48.357Z,4.40
2022-08-17T10:54:48.355Z,4.09
2022-08-17T10:55:48.341Z,4.19
2022-08-17T10:56:48.334Z,4.19
2022-08-17T10:57:48.322Z,4.00
2022-08-17T10:58:48.313Z,4.59
2022-08-17T10:59:48.306Z,4.40
2022-08-17T11:00:48.339Z,4.59
2022-08-17T11:01:48.287Z,4.80
2022-08-17T11:02:48.277Z,4.19
2022-08-17T11:03:48.267Z,4.19
2022-08-17T11:04:48.259Z,4.59
2022-08-17T11:05:48.250Z,4.40
2022-08-17T11:06:48.241Z,4.50
2022-08-17T11:07:48.233Z,4.30
2022-08-17T11:08:48.226Z,4.09
2022-08-17T11:09:48.220Z,3.90
2022-08-17T11:10:51.971Z,4.80
2022-08-17T11:11:48.199Z,4.19
2022-08-17T11:12:48.190Z,4.09
2022-08-17T11:13:48.178Z,4.00
2022-08-17T11:14:48.179Z,3.90
2022-08-17T11:15:48.161Z,4.09
2022-08-17T11:16:48.155Z,4.09
2022-08-17T11:17:48.145Z,3.79
2022-08-17T11:18:48.137Z,3.79
2022-08-17T11:19:48.125Z,4.09
2022-08-17T11:20:48.120Z,3.90
2022-08-17T11:21:48.108Z,3.79
2022-08-17T11:22:48.096Z,3.70
2022-08-17T11:23:48.090Z,4.30
2022-08-17T11:24:48.083Z,3.50
2022-08-17T11:25:48.072Z,3.79
2022-08-17T11:26:48.067Z,4.00
2022-08-17T11:27:48.054Z,3.90
2022-08-17T11:28:48.049Z,3.59
2022-08-17T11:29:52.531Z,3.70
2022-08-17T11:30:48.712Z,3.79
2022-08-17T11:31:48.022Z,3.70
2022-08-17T11:32:51.998Z,3.70
2022-08-17T11:33:49.023Z,4.00
2022-08-17T11:34:47.993Z,4.00
2022-08-17T11:35:47.987Z,3.90
2022-08-17T11:36:47.981Z,4.09
2022-08-17T11:37:47.971Z,4.09
2022-08-17T11:38:47.961Z,4.09
2022-08-17T11:39:48.033Z,4.00
2022-08-17T11:40:47.943Z,4.19
2022-08-17T11:41:47.933Z,4.30
2022-08-17T11:42:47.922Z,4.00
2022-08-17T11:43:47.915Z,4.00
2022-08-17T11:44:47.907Z,4.00
2022-08-17T11:45:47.896Z,3.90
2022-08-17T11:46:51.844Z,3.79
2022-08-17T11:48:08.873Z,3.79
2022-08-17T11:48:48.891Z,4.09
2022-08-17T11:49:47.861Z,3.90
2022-08-17T11:50:47.953Z,3.90
2022-08-17T11:51:47.848Z,3.50
2022-08-17T11:52:47.831Z,3.70
2022-08-17T11:53:47.823Z,3.59
2022-08-17T11:54:47.815Z,3.59
2022-08-17T11:55:47.808Z,3.90
2022-08-17T11:56:47.799Z,4.00
2022-08-17T11:57:47.789Z,3.90
2022-08-17T11:58:47.782Z,3.50
2022-08-17T11:59:47.770Z,3.90
2022-08-17T12:00:47.762Z,3.90
2022-08-17T12:01:47.752Z,3.90
2022-08-17T12:02:48.746Z,3.90
2022-08-17T12:03:53.985Z,3.70
2022-08-17T12:04:48.849Z,3.79
2022-08-17T12:05:47.726Z,3.70
2022-08-17T12:06:47.707Z,3.70
2022-08-17T12:07:47.702Z,4.00
2022-08-17T12:08:47.689Z,3.70
2022-08-17T12:09:47.679Z,3.70
2022-08-17T12:10:47.671Z,3.70
2022-08-17T12:12:11.277Z,3.90
2022-08-17T12:12:48.678Z,3.50
2022-08-17T12:13:47.645Z,3.70
2022-08-17T12:15:12.402Z,3.29
2022-08-17T12:15:48.658Z,3.50
2022-08-17T12:16:47.621Z,3.59
2022-08-17T12:17:47.611Z,3.59
2022-08-17T12:21:35.471Z,4.00
2022-08-17T12:22:36.871Z,3.70
2022-08-17T12:24:54.364Z,3.79
2022-08-17T12:24:55.780Z,3.59
2022-08-17T12:25:55.768Z,3.70
2022-08-17T12:26:55.758Z,3.50
2022-08-17T12:28:06.046Z,3.79
2022-08-17T12:28:56.763Z,3.79
2022-08-17T12:29:55.734Z,3.79
2022-08-17T12:30:55.728Z,4.09
2022-08-17T12:31:55.718Z,3.79
2022-08-17T12:32:55.708Z,3.79
2022-08-17T12:33:55.702Z,4.00
2022-08-17T12:34:55.691Z,3.70
2022-08-17T12:35:59.310Z,4.09
2022-08-17T12:36:55.674Z,4.30
2022-08-17T12:37:55.663Z,4.19
2022-08-17T12:38:55.656Z,3.90
2022-08-17T12:39:55.721Z,4.00
2022-08-17T12:40:55.638Z,4.19
2022-08-17T12:42:01.404Z,4.09
2022-08-17T12:42:56.641Z,4.00
2022-08-17T12:43:55.610Z,3.90
2022-08-17T12:44:55.602Z,3.70
2022-08-17T12:45:55.593Z,4.19
2022-08-17T12:46:55.582Z,4.19
2022-08-17T12:47:55.572Z,4.50
2022-08-17T12:48:59.676Z,4.00
2022-08-17T12:49:55.556Z,4.09
2022-08-17T12:50:55.547Z,3.90
2022-08-17T12:51:55.542Z,4.00
2022-08-17T12:52:59.672Z,4.40
2022-08-17T12:53:55.538Z,4.19
2022-08-17T12:54:55.513Z,4.40
2022-08-17T12:55:55.501Z,4.40
2022-08-17T12:56:55.493Z,4.30
2022-08-17T12:57:55.480Z,4.19
2022-08-17T12:58:55.475Z,4.50
2022-08-17T12:59:55.462Z,4.50
2022-08-17T13:00:55.453Z,4.40
2022-08-17T13:01:55.530Z,4.50
2022-08-17T13:02:55.432Z,4.69
2022-08-17T13:03:55.425Z,4.80
2022-08-17T13:04:55.415Z,4.40
2022-08-17T13:05:55.407Z,4.80
2022-08-17T13:06:59.807Z,4.40
2022-08-17T13:07:55.387Z,4.80
2022-08-17T13:08:55.378Z,4.40
2022-08-17T13:09:55.372Z,4.69
2022-08-17T13:10:55.359Z,4.59
2022-08-17T13:11:55.351Z,4.30
2022-08-17T13:12:55.341Z,4.59
2022-08-17T13:13:55.329Z,5.09
2022-08-17T13:14:55.320Z,4.50
2022-08-17T13:15:55.310Z,4.80
2022-08-17T13:16:55.298Z,5.00
2022-08-17T13:17:55.294Z,5.30
2022-08-17T13:18:55.283Z,5.09
2022-08-17T13:19:55.269Z,5.40
2022-08-17T13:20:55.263Z,5.19
2022-08-17T13:21:55.255Z,5.09
2022-08-17T13:22:55.242Z,5.00
2022-08-17T13:23:55.233Z,4.69
2022-08-17T13:24:55.226Z,4.80
2022-08-17T13:25:55.224Z,4.50
2022-08-17T13:26:55.201Z,4.69
2022-08-17T13:27:55.199Z,5.30
2022-08-17T13:28:55.189Z,5.09
2022-08-17T13:29:55.179Z,5.00
2022-08-17T13:30:55.165Z,4.69
2022-08-17T13:31:59.762Z,4.90
2022-08-17T13:32:55.932Z,4.59
2022-08-17T13:33:55.136Z,5.09
2022-08-17T13:35:13.152Z,4.90
2022-08-17T13:35:55.123Z,5.19
2022-08-17T13:36:55.109Z,5.30
2022-08-17T13:37:55.101Z,4.80
2022-08-17T13:38:55.090Z,4.90
2022-08-17T13:39:55.191Z,4.50
2022-08-17T13:40:55.071Z,4.69
2022-08-17T13:41:55.063Z,5.00
2022-08-17T13:42:55.055Z,4.19
2022-08-17T13:43:55.082Z,4.30
2022-08-17T13:44:55.031Z,4.50
2022-08-17T13:45:55.018Z,4.90
2022-08-17T13:46:57.073Z,4.80
2022-08-17T13:47:55.001Z,4.50
2022-08-17T13:48:54.995Z,4.80
2022-08-17T13:49:54.982Z,4.80
2022-08-17T13:50:54.971Z,4.90
2022-08-17T13:51:54.964Z,4.50
2022-08-17T13:52:54.955Z,5.09
2022-08-17T13:53:54.943Z,5.00
2022-08-17T13:54:55.612Z,5.19
2022-08-17T13:55:54.926Z,5.59
2022-08-17T13:56:54.916Z,5.19
2022-08-17T13:57:59.594Z,5.00
2022-08-17T13:58:54.893Z,5.30
2022-08-17T13:59:55.958Z,4.90
2022-08-17T14:00:54.874Z,4.69
2022-08-17T14:01:54.888Z,5.00
2022-08-17T14:02:54.854Z,4.90
2022-08-17T14:03:54.844Z,5.19
2022-08-17T14:04:54.838Z,4.69
2022-08-17T14:05:54.827Z,4.90
2022-08-17T14:06:54.818Z,4.90
2022-08-17T14:07:54.805Z,5.69
2022-08-17T14:08:54.796Z,5.00
2022-08-17T14:09:54.792Z,5.19
2022-08-17T14:10:54.777Z,5.59
2022-08-17T14:11:54.776Z,5.50
2022-08-17T14:12:54.758Z,5.40
2022-08-17T14:13:54.747Z,6.00
2022-08-17T14:14:54.738Z,5.40
2022-08-17T14:15:56.719Z,5.19
2022-08-17T14:16:54.717Z,5.69
2022-08-17T14:17:54.786Z,5.19
2022-08-17T14:18:56.841Z,5.30
2022-08-17T14:19:54.686Z,5.19
2022-08-17T14:20:54.679Z,6.00
2022-08-17T14:21:54.668Z,5.40
2022-08-17T14:22:54.658Z,5.40
2022-08-17T14:23:55.153Z,5.40
2022-08-17T14:24:54.639Z,5.09
2022-08-17T14:25:54.635Z,4.69
2022-08-17T14:26:54.618Z,5.30
2022-08-17T14:27:54.945Z,5.40
2022-08-17T14:28:56.875Z,6.09
2022-08-17T14:29:54.588Z,5.59
2022-08-17T14:30:54.589Z,4.69
2022-08-17T14:31:54.886Z,5.59
2022-08-17T14:32:54.577Z,5.59
2022-08-17T14:33:54.555Z,5.40
2022-08-17T14:34:54.541Z,5.59
2022-08-17T14:35:54.531Z,5.59